createdAt,value
2019-02-05T00:03:24.448Z,12.25
2019-02-05T00:05:58.407Z,8.20
2019-02-05T00:08:31.600Z,6.60
2019-02-05T00:11:01.928Z,5.37
2019-02-05T00:13:32.766Z,10.93
2019-02-05T00:16:03.498Z,5.25
2019-02-05T00:18:33.724Z,25.50
2019-02-05T00:21:04.238Z,6.47
2019-02-05T00:23:35.275Z,8.03
2019-02-05T00:26:06.682Z,6.37
2019-02-05T00:28:37.722Z,7.35
2019-02-05T00:31:08.606Z,6.28
2019-02-05T00:33:43.656Z,7.25
2019-02-05T00:36:20.816Z,7.30
2019-02-05T00:38:51.006Z,8.55
2019-02-05T00:41:21.528Z,7.95
2019-02-05T00:43:53.565Z,7.87
2019-02-05T00:46:27.124Z,8.05
2019-02-05T00:49:02.917Z,7.92
2019-02-05T00:51:34.582Z,12.55
2019-02-05T00:54:09.101Z,9.50
2019-02-05T00:56:42.279Z,7.87
2019-02-05T00:59:13.697Z,7.35
2019-02-05T01:01:48.883Z,8.98
2019-02-05T01:04:19.682Z,8.48
2019-02-05T01:06:49.685Z,14.18
2019-02-05T01:09:20.677Z,10.63
2019-02-05T01:11:52.921Z,16.55
2019-02-05T01:14:23.582Z,9.68
2019-02-05T01:17:07.218Z,12.63
2019-02-05T01:19:37.875Z,10.63
2019-02-05T01:22:09.388Z,13.58
2019-02-05T01:24:43.028Z,13.90
2019-02-05T01:27:16.461Z,19.98
2019-02-05T01:29:47.341Z,20.20
2019-02-05T01:32:18.667Z,16.23
2019-02-05T01:34:49.946Z,20.25
2019-02-05T01:37:21.251Z,16.65
2019-02-05T01:40:14.344Z,20.97
2019-02-05T01:42:45.182Z,22.70
2019-02-05T01:45:21.135Z,14.23
2019-02-05T01:47:59.343Z,15.70
2019-02-05T01:50:30.075Z,14.58
2019-02-05T01:53:15.668Z,16.37
2019-02-05T01:55:46.405Z,16.95
2019-02-05T01:58:20.193Z,16.65
2019-02-05T02:00:50.534Z,15.48
2019-02-05T02:03:29.882Z,16.27
2019-02-05T02:06:00.779Z,15.60
2019-02-05T02:08:31.499Z,18.27
2019-02-05T02:11:02.318Z,22.40
2019-02-05T02:13:35.337Z,11.70
2019-02-05T02:16:06.198Z,13.13
2019-02-05T02:18:36.431Z,17.75
2019-02-05T02:21:07.319Z,18.77
2019-02-05T02:23:37.801Z,18.00
2019-02-05T02:26:08.651Z,19.85
2019-02-05T02:28:42.517Z,17.92
2019-02-05T02:31:22.291Z,16.15
2019-02-05T02:34:06.999Z,13.32
2019-02-05T02:36:47.407Z,15.80
2019-02-05T02:39:21.890Z,18.32
2019-02-05T02:41:58.861Z,19.82
2019-02-05T02:44:32.558Z,17.85
2019-02-05T02:47:09.439Z,14.78
2019-02-05T02:50:04.463Z,15.03
2019-02-05T02:52:41.796Z,16.82
2019-02-05T02:55:31.470Z,22.15
2019-02-05T02:58:03.124Z,13.40
2019-02-05T03:00:36.550Z,18.35
2019-02-05T03:03:31.752Z,15.15
2019-02-05T03:06:06.363Z,11.70
2019-02-05T03:08:36.697Z,17.23
2019-02-05T03:11:14.098Z,14.25
2019-02-05T03:13:55.874Z,11.60
2019-02-05T03:16:26.587Z,17.70
2019-02-05T03:18:57.348Z,14.55
2019-02-05T03:21:30.719Z,14.98
2019-02-05T03:24:02.617Z,13.70
2019-02-05T03:26:33.122Z,16.02
2019-02-05T03:29:03.556Z,13.28
2019-02-05T03:31:34.324Z,13.38
2019-02-05T03:34:04.908Z,14.60
2019-02-05T03:36:38.201Z,14.70
2019-02-05T03:39:13.336Z,14.28
2019-02-05T03:41:49.628Z,14.70
2019-02-05T03:44:20.157Z,12.80
2019-02-05T03:46:50.890Z,15.10
2019-02-05T03:49:21.896Z,13.68
2019-02-05T03:52:16.027Z,14.23
2019-02-05T03:55:11.491Z,14.75
2019-02-05T03:58:15.624Z,12.58
2019-02-05T04:01:23.147Z,14.15
2019-02-05T04:04:50.046Z,13.90
2019-02-05T04:07:53.241Z,15.05
2019-02-05T04:10:52.194Z,22.62
2019-02-05T04:13:51.953Z,16.60
2019-02-05T04:16:59.174Z,12.75
2019-02-05T04:20:16.557Z,18.00
2019-02-05T04:23:10.024Z,15.18
2019-02-05T04:25:58.220Z,21.68
2019-02-05T04:28:49.868Z,17.23
2019-02-05T04:31:51.422Z,16.62
2019-02-05T04:35:16.224Z,17.37
2019-02-05T04:38:27.318Z,19.77
2019-02-05T04:41:23.990Z,23.42
2019-02-05T04:44:21.071Z,22.15
2019-02-05T04:47:27.881Z,21.25
2019-02-05T04:50:21.926Z,27.62
2019-02-05T04:53:34.448Z,25.35
2019-02-05T04:56:43.504Z,28.42
2019-02-05T04:59:41.387Z,29.45
2019-02-05T05:02:28.914Z,25.27
2019-02-05T05:05:49.192Z,27.00
2019-02-05T05:09:00.967Z,33.50
2019-02-05T05:11:31.081Z,32.00
2019-02-05T05:14:02.628Z,29.65
2019-02-05T05:16:32.772Z,34.58
2019-02-05T05:19:06.784Z,32.78
2019-02-05T05:21:39.155Z,30.75
2019-02-05T05:24:18.798Z,32.78
2019-02-05T05:26:50.332Z,33.28
2019-02-05T05:29:28.246Z,33.48
2019-02-05T05:32:02.394Z,41.20
2019-02-05T05:34:35.283Z,38.45
2019-02-05T05:37:03.871Z,47.05
2019-02-05T05:39:34.658Z,40.55
2019-02-05T05:42:06.609Z,43.73
2019-02-05T05:44:37.217Z,49.18
2019-02-05T05:49:59.968Z,41.18
2019-02-05T05:52:30.293Z,40.58
2019-02-05T05:55:03.588Z,34.35
2019-02-05T05:57:34.365Z,37.25
2019-02-05T06:00:08.538Z,41.02
2019-02-05T06:02:39.954Z,35.58
2019-02-05T06:05:14.209Z,40.45
2019-02-05T06:07:49.140Z,42.17
2019-02-05T06:10:26.880Z,47.15
2019-02-05T06:13:11.041Z,46.08
2019-02-05T06:15:41.756Z,46.58
2019-02-05T06:18:12.133Z,45.92
2019-02-05T06:20:42.782Z,49.60
2019-02-05T06:23:15.260Z,44.95
2019-02-05T06:25:48.869Z,43.45
2019-02-05T06:28:34.298Z,51.50
2019-02-05T06:30:55.791Z,43.48
2019-02-05T06:33:25.603Z,49.53
2019-02-05T06:35:55.547Z,42.65
2019-02-05T06:38:25.516Z,47.40
2019-02-05T06:40:55.408Z,50.83
2019-02-05T06:43:25.140Z,41.50
2019-02-05T06:45:54.955Z,62.93
2019-02-05T06:48:24.704Z,57.60
2019-02-05T06:50:56.829Z,45.40
2019-02-05T06:53:26.099Z,43.08
2019-02-05T06:55:56.113Z,49.23
2019-02-05T06:58:25.720Z,46.98
2019-02-05T07:00:55.662Z,52.45
2019-02-05T07:03:25.446Z,65.12
2019-02-05T07:05:55.079Z,52.50
2019-02-05T07:08:24.666Z,60.88
2019-02-05T07:10:54.376Z,56.20
2019-02-05T07:13:24.228Z,54.63
2019-02-05T07:15:53.891Z,55.25
2019-02-05T07:18:23.866Z,51.10
2019-02-05T07:20:53.750Z,52.83
2019-02-05T07:23:23.632Z,56.13
2019-02-05T07:25:53.238Z,55.00
2019-02-05T07:28:23.286Z,51.45
2019-02-05T07:30:53.476Z,48.52
2019-02-05T07:33:23.586Z,57.78
2019-02-05T07:35:53.506Z,62.98
2019-02-05T07:38:23.223Z,54.13
2019-02-05T07:40:53.403Z,60.10
2019-02-05T07:43:23.265Z,63.65
2019-02-05T07:45:53.298Z,54.38
2019-02-05T07:48:23.156Z,67.32
2019-02-05T07:50:53.050Z,61.45
2019-02-05T07:53:23.308Z,54.98
2019-02-05T07:55:53.218Z,60.12
2019-02-05T07:58:23.025Z,58.78
2019-02-05T08:00:52.968Z,56.05
2019-02-05T08:03:22.848Z,72.42
2019-02-05T08:05:53.151Z,62.25
2019-02-05T08:08:22.796Z,54.30
2019-02-05T08:10:52.669Z,53.02
2019-02-05T08:13:22.522Z,53.13
2019-02-05T08:15:52.532Z,49.50
2019-02-05T08:18:22.327Z,57.50
2019-02-05T08:20:52.547Z,45.83
2019-02-05T08:23:22.925Z,56.28
2019-02-05T08:25:52.663Z,61.92
2019-02-05T08:28:22.460Z,50.43
2019-02-05T08:30:51.992Z,57.38
2019-02-05T08:33:21.711Z,43.25
2019-02-05T08:35:51.819Z,46.73
2019-02-05T08:38:21.585Z,50.80
2019-02-05T08:40:51.438Z,51.73
2019-02-05T08:43:21.587Z,50.23
2019-02-05T08:45:56.645Z,57.48
2019-02-05T08:48:23.144Z,45.85
2019-02-05T08:50:53.144Z,41.37
2019-02-05T08:53:22.949Z,49.50
2019-02-05T08:55:53.144Z,42.40
2019-02-05T08:58:44.045Z,52.03
2019-02-05T09:01:14.609Z,38.25
2019-02-05T09:03:44.945Z,52.78
2019-02-05T09:06:14.743Z,41.90
2019-02-05T09:08:44.982Z,36.53
2019-02-05T09:11:14.998Z,38.98
2019-02-05T09:13:45.317Z,49.53
2019-02-05T09:16:15.230Z,47.40
2019-02-05T09:18:45.344Z,38.13
2019-02-05T09:21:15.451Z,41.75
2019-02-05T09:23:45.227Z,47.58
2019-02-05T09:26:15.243Z,44.58
2019-02-05T09:28:45.716Z,43.68
2019-02-05T09:31:15.709Z,31.62
2019-02-05T09:33:45.314Z,37.10
2019-02-05T09:36:50.500Z,35.95
2019-02-05T09:39:21.092Z,44.67
2019-02-05T09:41:50.995Z,34.60
2019-02-05T09:44:21.468Z,33.15
2019-02-05T09:46:51.224Z,31.55
2019-02-05T09:49:20.512Z,31.57
2019-02-05T09:51:50.530Z,44.03
2019-02-05T09:54:20.564Z,39.30
2019-02-05T09:56:50.860Z,43.50
2019-02-05T09:59:20.862Z,39.27
2019-02-05T10:01:51.017Z,36.70
2019-02-05T10:04:20.869Z,38.05
2019-02-05T10:06:50.967Z,38.80
2019-02-05T10:09:20.859Z,32.70
2019-02-05T10:11:50.383Z,36.68
2019-02-05T10:14:20.417Z,36.63
2019-02-05T10:16:50.319Z,31.75
2019-02-05T10:19:20.160Z,32.35
2019-02-05T10:21:50.020Z,35.98
2019-02-05T10:24:19.829Z,37.67
2019-02-05T10:26:49.325Z,40.17
2019-02-05T10:29:19.306Z,48.55
2019-02-05T10:31:48.769Z,40.12
2019-02-05T10:34:18.701Z,45.60
2019-02-05T10:36:48.471Z,48.05
2019-02-05T10:39:18.820Z,41.92
2019-02-05T10:41:48.620Z,43.08
2019-02-05T10:44:18.540Z,34.53
2019-02-05T10:46:48.338Z,37.25
2019-02-05T10:49:18.580Z,33.92
2019-02-05T10:51:48.457Z,41.60
2019-02-05T10:54:18.336Z,34.95
2019-02-05T10:56:48.281Z,33.48
2019-02-05T10:59:17.980Z,38.73
2019-02-05T11:01:47.976Z,37.60
2019-02-05T11:04:18.437Z,42.17
2019-02-05T11:06:48.221Z,41.92
2019-02-05T11:09:18.050Z,41.00
2019-02-05T11:11:47.860Z,41.92
2019-02-05T11:14:17.648Z,48.45
2019-02-05T11:16:47.680Z,38.28
2019-02-05T11:19:17.738Z,37.10
2019-02-05T11:21:47.411Z,36.23
2019-02-05T11:24:17.259Z,41.98
2019-02-05T11:26:47.170Z,46.85
2019-02-05T11:29:17.140Z,40.10
2019-02-05T11:31:47.135Z,39.13
2019-02-05T11:34:16.975Z,35.83
2019-02-05T11:36:46.782Z,47.33
2019-02-05T11:39:17.377Z,46.68
2019-02-05T11:41:59.260Z,54.95
2019-02-05T11:44:29.143Z,47.38
2019-02-05T11:46:59.380Z,51.35
2019-02-05T11:49:29.615Z,60.10
2019-02-05T11:51:59.605Z,56.70
2019-02-05T11:54:29.806Z,58.13
2019-02-05T11:56:59.619Z,63.28
2019-02-05T11:59:29.255Z,57.25
2019-02-05T12:01:59.285Z,63.48
2019-02-05T12:04:29.381Z,59.15
2019-02-05T12:06:59.264Z,56.70
2019-02-05T12:09:29.477Z,62.40
2019-02-05T12:11:59.374Z,64.62
2019-02-05T12:14:29.101Z,73.30
2019-02-05T12:16:59.017Z,61.75
2019-02-05T12:19:29.444Z,63.83
2019-02-05T12:21:59.351Z,64.30
2019-02-05T12:24:29.018Z,62.90
2019-02-05T12:26:58.773Z,67.82
2019-02-05T12:29:28.884Z,68.50
2019-02-05T12:31:58.778Z,66.57
2019-02-05T12:34:28.655Z,63.98
2019-02-05T12:36:58.519Z,62.60
2019-02-05T12:39:28.539Z,68.87
2019-02-05T12:41:58.672Z,69.58
2019-02-05T12:44:28.462Z,54.60
2019-02-05T12:46:58.660Z,63.90
2019-02-05T12:49:28.419Z,56.77
2019-02-05T12:51:58.562Z,69.62
2019-02-05T12:54:28.322Z,79.07
2019-02-05T12:56:58.290Z,74.67
2019-02-05T12:59:28.381Z,67.60
2019-02-05T13:01:58.057Z,68.67
2019-02-05T13:04:28.089Z,68.95
2019-02-05T13:06:58.189Z,68.40
2019-02-05T13:09:28.530Z,69.77
2019-02-05T13:11:58.845Z,66.37
2019-02-05T13:14:28.905Z,55.38
2019-02-05T13:16:59.009Z,57.48
2019-02-05T13:19:29.496Z,56.58
2019-02-05T13:21:59.862Z,53.63
2019-02-05T13:24:29.735Z,51.85
2019-02-05T13:26:59.798Z,55.85
2019-02-05T13:29:30.122Z,51.73
2019-02-05T13:31:59.678Z,50.90
2019-02-05T13:34:29.740Z,57.53
2019-02-05T13:36:59.635Z,56.15
2019-02-05T13:39:29.141Z,59.23
2019-02-05T13:41:59.017Z,51.83
2019-02-05T13:44:28.894Z,48.52
2019-02-05T13:46:58.771Z,46.02
2019-02-05T13:49:28.579Z,48.05
2019-02-05T13:51:58.413Z,39.27
2019-02-05T13:54:28.408Z,41.30
2019-02-05T13:56:58.299Z,39.40
2019-02-05T13:59:28.049Z,47.93
2019-02-05T14:01:58.427Z,43.58
2019-02-05T14:04:28.782Z,42.58
2019-02-05T14:06:58.774Z,42.67
2019-02-05T14:09:28.688Z,47.35
2019-02-05T14:11:59.287Z,51.02
2019-02-05T14:14:29.388Z,45.03
2019-02-05T14:16:59.646Z,55.05
2019-02-05T14:19:29.608Z,44.55
2019-02-05T14:21:59.137Z,49.83
2019-02-05T14:24:29.130Z,45.88
2019-02-05T14:26:59.098Z,39.55
2019-02-05T14:29:29.122Z,40.63
2019-02-05T14:31:59.275Z,44.33
2019-02-05T14:34:29.448Z,42.67
2019-02-05T14:36:59.498Z,42.60
2019-02-05T14:39:29.387Z,48.90
2019-02-05T14:41:59.984Z,39.38
2019-02-05T14:44:29.847Z,39.35
2019-02-05T14:46:59.868Z,39.00
2019-02-05T14:49:30.085Z,43.15
2019-02-05T14:52:00.214Z,43.40
2019-02-05T14:54:30.287Z,44.65
2019-02-05T14:57:00.209Z,52.48
2019-02-05T14:59:30.575Z,44.90
2019-02-05T15:02:00.567Z,53.25
2019-02-05T15:04:30.445Z,45.38
2019-02-05T15:07:00.157Z,46.15
2019-02-05T15:09:29.867Z,46.20
2019-02-05T15:11:59.858Z,45.67
2019-02-05T15:14:29.978Z,44.63
2019-02-05T15:16:59.490Z,50.48
2019-02-05T15:19:29.851Z,47.38
2019-02-05T15:21:59.638Z,47.73
2019-02-05T15:24:37.218Z,41.65
2019-02-05T15:27:01.311Z,47.58
2019-02-05T15:29:31.181Z,45.45
2019-02-05T15:32:01.133Z,50.63
2019-02-05T15:34:31.465Z,49.70
2019-02-05T15:37:01.284Z,55.03
2019-02-05T15:39:30.881Z,53.58
2019-02-05T15:42:00.569Z,47.27
2019-02-05T15:44:30.184Z,49.70
2019-02-05T15:46:59.843Z,43.78
2019-02-05T15:49:30.208Z,46.75
2019-02-05T15:52:00.026Z,43.30
2019-02-05T15:54:29.948Z,42.80
2019-02-05T15:56:59.339Z,39.35
2019-02-05T15:59:29.367Z,41.08
2019-02-05T16:02:05.873Z,42.00
2019-02-05T16:04:30.481Z,43.48
2019-02-05T16:07:00.602Z,44.45
2019-02-05T16:09:31.324Z,41.53
2019-02-05T16:12:01.403Z,41.88
2019-02-05T16:14:31.647Z,41.37
2019-02-05T16:17:01.837Z,38.85
2019-02-05T16:19:31.683Z,42.23
2019-02-05T16:22:02.384Z,42.23
2019-02-05T16:24:32.793Z,42.93
2019-02-05T16:27:05.725Z,42.93
2019-02-05T16:29:35.892Z,39.85
2019-02-05T16:32:17.067Z,41.80
2019-02-05T16:34:37.254Z,40.90
2019-02-05T16:37:23.075Z,37.40
2019-02-05T16:39:53.514Z,38.58
2019-02-05T16:42:23.803Z,38.48
2019-02-05T16:44:54.355Z,43.83
2019-02-05T16:47:24.720Z,41.25
2019-02-05T16:49:55.102Z,391.17
2019-02-05T16:52:25.163Z,197.70
2019-02-05T16:54:55.543Z,132.27
2019-02-05T16:57:26.127Z,130.67
2019-02-05T16:59:56.010Z,80.53
2019-02-05T17:02:28.948Z,85.75
2019-02-05T17:04:59.667Z,56.15
2019-02-05T17:07:31.050Z,63.30
2019-02-05T17:10:01.492Z,55.92
2019-02-05T17:12:31.892Z,56.92
2019-02-05T17:15:02.614Z,49.93
2019-02-05T17:17:32.965Z,57.93
2019-02-05T17:20:02.842Z,53.00
2019-02-05T17:22:32.842Z,53.55
2019-02-05T17:25:05.415Z,51.60
2019-02-05T17:27:36.049Z,50.20
2019-02-05T17:30:09.804Z,51.50
2019-02-05T17:32:40.575Z,54.80
2019-02-05T17:35:11.058Z,49.98
2019-02-05T17:37:41.727Z,48.75
2019-02-05T17:40:14.618Z,54.35
2019-02-05T17:42:44.857Z,50.78
2019-02-05T17:45:17.367Z,51.28
2019-02-05T17:48:00.082Z,44.42
2019-02-05T17:50:29.960Z,43.87
2019-02-05T17:53:00.161Z,46.00
2019-02-05T17:55:30.080Z,49.53
2019-02-05T17:57:59.971Z,52.58
2019-02-05T18:00:38.718Z,52.58
2019-02-05T18:03:08.493Z,52.55
2019-02-05T18:05:38.599Z,48.73
2019-02-05T18:08:08.368Z,47.85
2019-02-05T18:10:37.998Z,46.18
2019-02-05T18:13:07.446Z,49.63
2019-02-05T18:15:37.516Z,49.90
2019-02-05T18:18:07.883Z,56.37
2019-02-05T18:20:37.885Z,58.73
2019-02-05T18:23:07.521Z,51.85
2019-02-05T18:25:37.404Z,48.20
2019-02-05T18:28:07.640Z,56.75
2019-02-05T18:30:38.355Z,83.30
2019-02-05T18:33:08.715Z,386.35
2019-02-05T18:35:38.961Z,264.65
2019-02-05T18:38:10.883Z,75.32
2019-02-05T18:40:41.242Z,62.05
2019-02-05T18:43:11.117Z,45.50
2019-02-05T18:45:41.235Z,49.00
2019-02-05T18:48:11.552Z,44.30
2019-02-05T18:50:41.736Z,45.12
2019-02-05T18:53:12.306Z,52.55
2019-02-05T18:55:42.802Z,43.20
2019-02-05T18:58:13.036Z,41.77
2019-02-05T19:00:44.007Z,35.83
2019-02-05T19:03:15.916Z,45.33
2019-02-05T19:06:07.198Z,34.10
2019-02-05T19:08:37.073Z,39.20
2019-02-05T19:11:07.410Z,36.83
2019-02-05T19:13:37.682Z,37.48
2019-02-05T19:16:07.638Z,37.20
2019-02-05T19:18:37.890Z,39.33
2019-02-05T19:21:07.881Z,35.88
2019-02-05T19:23:38.235Z,34.20
2019-02-05T19:26:19.162Z,37.80
2019-02-05T19:28:49.397Z,36.88
2019-02-05T19:31:36.467Z,44.03
2019-02-05T19:34:07.279Z,34.78
2019-02-05T19:36:37.152Z,36.23
2019-02-05T19:39:09.334Z,35.88
2019-02-05T19:41:39.439Z,39.48
2019-02-05T19:44:09.848Z,37.48
2019-02-05T19:47:01.512Z,37.93
2019-02-05T19:49:37.349Z,33.88
2019-02-05T19:52:08.238Z,35.92
2019-02-05T19:54:38.826Z,35.78
2019-02-05T19:57:09.035Z,41.28
2019-02-05T19:59:39.435Z,36.00
2019-02-05T20:02:09.564Z,40.38
2019-02-05T20:04:39.680Z,37.48
2019-02-05T20:07:09.790Z,30.88
2019-02-05T20:09:39.676Z,33.75
2019-02-05T20:12:10.538Z,40.25
2019-02-05T20:14:41.596Z,42.60
2019-02-05T20:17:11.975Z,35.17
2019-02-05T20:19:42.264Z,39.55
2019-02-05T20:22:12.559Z,35.23
2019-02-05T20:24:42.937Z,37.17
2019-02-05T20:27:13.568Z,37.88
2019-02-05T20:29:43.393Z,32.98
2019-02-05T20:32:13.509Z,39.65
2019-02-05T20:34:44.597Z,35.78
2019-02-05T20:37:14.891Z,37.55
2019-02-05T20:39:44.981Z,38.63
2019-02-05T20:42:15.455Z,41.90
2019-02-05T20:44:52.199Z,42.43
2019-02-05T20:47:22.841Z,47.60
2019-02-05T20:49:52.877Z,57.35
2019-02-05T20:52:23.167Z,47.38
2019-02-05T20:54:53.797Z,38.48
2019-02-05T20:57:26.617Z,40.65
2019-02-05T20:59:57.004Z,40.45
2019-02-05T21:02:27.118Z,40.28
2019-02-05T21:04:57.117Z,42.80
2019-02-05T21:07:27.207Z,39.03
2019-02-05T21:09:58.065Z,39.33
2019-02-05T21:12:28.148Z,38.75
2019-02-05T21:14:59.009Z,44.13
2019-02-05T21:17:29.601Z,39.88
2019-02-05T21:19:59.625Z,51.90
2019-02-05T21:22:29.813Z,46.48
2019-02-05T21:25:00.266Z,40.73
2019-02-05T21:27:30.431Z,40.08
2019-02-05T21:30:01.048Z,42.48
2019-02-05T21:32:31.237Z,36.48
2019-02-05T21:35:01.424Z,37.88
2019-02-05T21:37:31.756Z,32.80
2019-02-05T21:40:02.875Z,37.42
2019-02-05T21:42:45.799Z,41.50
2019-02-05T21:45:17.711Z,37.83
2019-02-05T21:47:47.886Z,36.25
2019-02-05T21:50:19.514Z,41.55
2019-02-05T21:52:49.806Z,39.00
2019-02-05T21:55:26.729Z,37.95
2019-02-05T21:57:57.432Z,42.83
2019-02-05T22:00:29.137Z,33.13
2019-02-05T22:03:00.029Z,36.00
2019-02-05T22:05:30.482Z,46.13
2019-02-05T22:08:01.030Z,38.17
2019-02-05T22:10:31.584Z,37.98
2019-02-05T22:13:02.387Z,31.17
2019-02-05T22:15:32.831Z,32.90
2019-02-05T22:18:03.091Z,35.92
2019-02-05T22:20:33.438Z,36.98
2019-02-05T22:23:05.227Z,40.70
2019-02-05T22:25:35.288Z,37.00
2019-02-05T22:28:06.545Z,39.48
2019-02-05T22:30:52.216Z,35.58
2019-02-05T22:33:22.057Z,34.98
2019-02-05T22:35:52.177Z,34.58
2019-02-05T22:38:22.510Z,38.38
2019-02-05T22:40:52.329Z,35.35
2019-02-05T22:43:22.625Z,34.03
2019-02-05T22:45:52.409Z,32.60
2019-02-05T22:48:22.145Z,32.30
2019-02-05T22:50:51.829Z,40.80
2019-02-05T22:53:22.072Z,44.15
2019-02-05T22:55:52.076Z,52.00
2019-02-05T22:58:22.399Z,48.65
2019-02-05T23:01:37.009Z,40.60
2019-02-05T23:04:50.799Z,35.38
2019-02-05T23:07:23.319Z,34.67
2019-02-05T23:10:36.599Z,33.20
2019-02-05T23:13:14.835Z,39.00
2019-02-05T23:15:46.891Z,29.02
2019-02-05T23:18:17.361Z,31.42
2019-02-05T23:20:47.656Z,38.08
2019-02-05T23:23:17.877Z,37.48
2019-02-05T23:25:47.776Z,36.25
2019-02-05T23:28:18.136Z,39.25
2019-02-05T23:30:48.782Z,38.05
2019-02-05T23:33:19.032Z,34.15
2019-02-05T23:35:48.947Z,31.50
2019-02-05T23:38:18.861Z,33.50
2019-02-05T23:40:54.663Z,28.17
2019-02-05T23:43:24.647Z,29.95
2019-02-05T23:46:01.344Z,29.65
2019-02-05T23:48:26.292Z,24.80
2019-02-05T23:50:57.417Z,27.82
2019-02-05T23:53:27.778Z,38.00
2019-02-05T23:55:57.907Z,31.50
2019-02-05T23:58:29.834Z,26.20
